Terminal Aerodrome Forecast
Issued by NWS Cleveland, OH

Home | Current Version | Previous Version | Text Only | Print | Product List | Glossary On
Versions: 1 2 3 4 5 6 7 8 9 10 11 12 13 14 15 16 17 18 19 20 21 22 23 24 25 26
000
FTUS41 KCLE 291728
TAFCLE
TAF
KCLE 291728Z 2918/3024 17009KT P6SM -SHRA OVC100
     FM300000 10009KT 5SM -SHRA BR OVC035
     FM300400 13011KT 4SM BR VCSH OVC015
     FM300900 19006KT 6SM BR OVC007
     FM301500 23007KT P6SM OVC007
     FM301800 23007KT P6SM OVC025=

USA.gov is the U.S. government's official web portal to all federal, state and local government web resources and services.